LHE weather

Alama Iqbal International Airport
Lahore, Punjab, Pakistan

Public forecast

Using degrees Celsius for public forecast. Weather courtesy of forecast.io.

METAR (pilot weather report)

Retrieved 2019/05/24 15:25 UTC (0 seconds ago):

OPLA 241525Z 32006KT 5000 HZ FEW040 SCT100 26/15 Q1006 RMK A29.72

TAF (pilot weather forecast)

Retrieved 2019/05/24 12:06 UTC (3 hours ago):

TAF OPLA 240945Z 2412/2518 03005KT 5000 HZ FEW040 SCT100 TX37/2510Z TN23/2500Z PROB30 TEMPO 2418/2422 33015G40KT 1500 TSRA FEW030CB SCT040 SCT100 FM 25/0300 36008KT 5000 HZ FEW100